sensor_id;sensor_type;location;lat;lon;timestamp;pressure;altitude;pressure_sealevel;temperature;humidity
6500;BME280;3283;52.330;9.772;2023-01-28T09:18:08;102272.63;;;1.84;74.98
6500;BME280;3283;52.330;9.772;2023-01-28T09:41:28;102305.97;;;0.92;78.84
6500;BME280;3283;52.330;9.772;2023-01-28T09:44:04;102307.88;;;0.96;78.04
6500;BME280;3283;52.330;9.772;2023-01-28T09:46:34;102304.31;;;1.10;78.03
6500;BME280;3283;52.330;9.772;2023-01-28T09:49:08;102302.91;;;1.33;77.60
6500;BME280;3283;52.330;9.772;2023-01-28T09:51:46;102302.66;;;1.45;77.25
6500;BME280;3283;52.330;9.772;2023-01-28T09:57:01;102293.81;;;1.76;76.51
6500;BME280;3283;52.330;9.772;2023-01-28T09:59:32;102299.63;;;1.70;75.53
6500;BME280;3283;52.330;9.772;2023-01-28T10:02:17;102301.00;;;1.63;76.14
6500;BME280;3283;52.330;9.772;2023-01-28T10:07:42;102315.84;;;1.66;76.52
6500;BME280;3283;52.330;9.772;2023-01-28T10:10:14;102319.31;;;1.67;75.84
6500;BME280;3283;52.330;9.772;2023-01-28T10:12:58;102310.34;;;1.60;75.68
6500;BME280;3283;52.330;9.772;2023-01-28T10:18:09;102295.06;;;1.48;75.98
6500;BME280;3283;52.330;9.772;2023-01-28T10:20:44;102303.16;;;1.38;75.60
6500;BME280;3283;52.330;9.772;2023-01-28T10:23:30;102291.59;;;1.31;75.98
6500;BME280;3283;52.330;9.772;2023-01-28T10:25:58;102292.06;;;1.24;75.50
6500;BME280;3283;52.330;9.772;2023-01-28T10:28:28;102299.13;;;1.27;76.06
6500;BME280;3283;52.330;9.772;2023-01-28T10:30:54;102290.69;;;1.31;75.87
6500;BME280;3283;52.330;9.772;2023-01-28T10:35:51;102270.84;;;1.65;75.18
6500;BME280;3283;52.330;9.772;2023-01-28T10:38:21;102278.84;;;1.88;73.80
6500;BME280;3283;52.330;9.772;2023-01-28T10:40:48;102290.38;;;1.93;73.42
6500;BME280;3283;52.330;9.772;2023-01-28T10:43:16;102284.72;;;1.84;73.12
6500;BME280;3283;52.330;9.772;2023-01-28T10:48:28;102293.50;;;1.52;73.82
6500;BME280;3283;52.330;9.772;2023-01-28T10:50:57;102289.25;;;1.54;74.04
6500;BME280;3283;52.330;9.772;2023-01-28T10:53:43;102291.44;;;1.62;74.42
6500;BME280;3283;52.330;9.772;2023-01-28T10:56:27;102296.72;;;1.64;73.55
6500;BME280;3283;52.330;9.772;2023-01-28T10:59:04;102292.03;;;1.57;74.12
6500;BME280;3283;52.330;9.772;2023-01-28T11:01:52;102292.63;;;1.69;72.77
6500;BME280;3283;52.330;9.772;2023-01-28T11:04:28;102288.84;;;1.62;72.68
6500;BME280;3283;52.330;9.772;2023-01-28T11:09:34;102296.41;;;1.76;73.16
6500;BME280;3283;52.330;9.772;2023-01-28T11:12:23;102300.13;;;1.81;72.61
6500;BME280;3283;52.330;9.772;2023-01-28T11:15:15;102289.41;;;1.91;72.42
6500;BME280;3283;52.330;9.772;2023-01-28T11:17:47;102294.44;;;1.70;72.25
6500;BME280;3283;52.330;9.772;2023-01-28T11:20:21;102291.19;;;1.92;72.85
6500;BME280;3283;52.330;9.772;2023-01-28T11:22:49;102287.34;;;2.19;71.37
6500;BME280;3283;52.330;9.772;2023-01-28T11:25:17;102280.47;;;2.04;71.48
6500;BME280;3283;52.330;9.772;2023-01-28T11:27:49;102291.84;;;2.24;71.49
6500;BME280;3283;52.330;9.772;2023-01-28T11:30:23;102288.72;;;2.31;71.21
6500;BME280;3283;52.330;9.772;2023-01-28T11:32:55;102288.94;;;2.35;71.07
6500;BME280;3283;52.330;9.772;2023-01-28T11:35:29;102292.44;;;2.36;71.14
6500;BME280;3283;52.330;9.772;2023-01-28T11:38:00;102283.38;;;2.10;71.56
6500;BME280;3283;52.330;9.772;2023-01-28T11:40:26;102281.09;;;1.98;72.05
6500;BME280;3283;52.330;9.772;2023-01-28T11:42:55;102281.38;;;2.04;72.24
6500;BME280;3283;52.330;9.772;2023-01-28T11:45:45;102274.84;;;2.30;71.96
6500;BME280;3283;52.330;9.772;2023-01-28T11:48:40;102267.28;;;2.35;71.43
6500;BME280;3283;52.330;9.772;2023-01-28T11:59:58;102241.22;;;2.33;71.07
6500;BME280;3283;52.330;9.772;2023-01-28T12:08:17;102251.16;;;2.81;69.16
6500;BME280;3283;52.330;9.772;2023-01-28T12:45:39;102128.31;;;2.85;68.80
6500;BME280;3283;52.330;9.772;2023-01-28T12:48:15;102109.91;;;2.80;68.71
6500;BME280;3283;52.330;9.772;2023-01-28T12:51:07;102109.63;;;2.74;69.14
6500;BME280;3283;52.330;9.772;2023-01-28T12:53:51;102101.75;;;2.92;69.08
6500;BME280;3283;52.330;9.772;2023-01-28T12:56:27;102099.34;;;2.96;69.04
6500;BME280;3283;52.330;9.772;2023-01-28T13:01:41;102133.78;;;3.12;69.54
6500;BME280;3283;52.330;9.772;2023-01-28T13:06:46;102135.56;;;2.72;70.10
6500;BME280;3283;52.330;9.772;2023-01-28T13:09:18;102136.22;;;2.47;71.14
6500;BME280;3283;52.330;9.772;2023-01-28T13:11:46;102128.28;;;2.44;71.71
6500;BME280;3283;52.330;9.772;2023-01-28T13:14:12;102118.59;;;2.40;71.84
6500;BME280;3283;52.330;9.772;2023-01-28T13:16:38;102112.91;;;2.30;71.74
6500;BME280;3283;52.330;9.772;2023-01-28T13:19:37;102123.78;;;2.21;72.47
6500;BME280;3283;52.330;9.772;2023-01-28T13:22:31;102127.25;;;2.22;72.13
6500;BME280;3283;52.330;9.772;2023-01-28T13:25:24;102142.53;;;1.96;72.36
6500;BME280;3283;52.330;9.772;2023-01-28T13:28:03;102156.94;;;1.72;73.61
6500;BME280;3283;52.330;9.772;2023-01-28T13:30:31;102163.91;;;1.73;74.49
6500;BME280;3283;52.330;9.772;2023-01-28T13:33:02;102168.59;;;1.80;74.44
6500;BME280;3283;52.330;9.772;2023-01-28T13:35:36;102167.88;;;2.02;73.85
6500;BME280;3283;52.330;9.772;2023-01-28T13:38:15;102180.50;;;2.12;73.32
6500;BME280;3283;52.330;9.772;2023-01-28T13:40:41;102175.84;;;2.24;73.53
6500;BME280;3283;52.330;9.772;2023-01-28T13:43:36;102163.47;;;2.38;73.38
6500;BME280;3283;52.330;9.772;2023-01-28T13:46:05;102161.94;;;2.61;72.49
6500;BME280;3283;52.330;9.772;2023-01-28T13:48:50;102176.53;;;2.59;71.82
6500;BME280;3283;52.330;9.772;2023-01-28T13:51:30;102180.69;;;2.16;72.58
6500;BME280;3283;52.330;9.772;2023-01-28T13:53:59;102181.41;;;1.95;73.07
6500;BME280;3283;52.330;9.772;2023-01-28T13:56:41;102172.22;;;2.20;73.50
6500;BME280;3283;52.330;9.772;2023-01-28T13:59:30;102171.44;;;2.41;72.38
6500;BME280;3283;52.330;9.772;2023-01-28T14:31:29;102120.78;;;1.57;75.76
6500;BME280;3283;52.330;9.772;2023-01-28T14:36:49;102123.44;;;2.13;75.08
6500;BME280;3283;52.330;9.772;2023-01-28T14:39:18;102122.38;;;2.10;73.95
6500;BME280;3283;52.330;9.772;2023-01-28T14:41:46;102143.16;;;2.10;73.91
6500;BME280;3283;52.330;9.772;2023-01-28T14:44:26;102156.47;;;1.98;74.15
6500;BME280;3283;52.330;9.772;2023-01-28T14:47:02;102149.59;;;1.81;74.44
6500;BME280;3283;52.330;9.772;2023-01-28T14:55:16;102162.22;;;1.91;73.99
6500;BME280;3283;52.330;9.772;2023-01-28T14:57:46;102155.97;;;1.87;73.67
6500;BME280;3283;52.330;9.772;2023-01-28T15:00:29;102151.53;;;1.85;73.91
6500;BME280;3283;52.330;9.772;2023-01-28T15:02:55;102154.06;;;1.83;74.43
6500;BME280;3283;52.330;9.772;2023-01-28T15:05:23;102150.41;;;1.80;74.29
6500;BME280;3283;52.330;9.772;2023-01-28T15:07:49;102146.72;;;1.75;74.86
6500;BME280;3283;52.330;9.772;2023-01-28T15:10:27;102149.88;;;1.87;75.08
6500;BME280;3283;52.330;9.772;2023-01-28T15:12:57;102153.13;;;1.83;75.70
6500;BME280;3283;52.330;9.772;2023-01-28T15:15:36;102164.06;;;1.76;75.59
6500;BME280;3283;52.330;9.772;2023-01-28T15:20:30;102159.03;;;1.43;76.10
6500;BME280;3283;52.330;9.772;2023-01-28T15:22:57;102159.25;;;1.30;77.01
6500;BME280;3283;52.330;9.772;2023-01-28T15:25:25;102165.19;;;1.27;77.25
6500;BME280;3283;52.330;9.772;2023-01-28T15:27:54;102168.34;;;1.22;77.50
6500;BME280;3283;52.330;9.772;2023-01-28T15:30:26;102178.09;;;1.09;77.22
6500;BME280;3283;52.330;9.772;2023-01-28T15:35:26;102180.56;;;1.06;77.55
6500;BME280;3283;52.330;9.772;2023-01-28T15:37:52;102175.19;;;1.03;77.94
6500;BME280;3283;52.330;9.772;2023-01-28T15:40:19;102176.97;;;1.04;78.23
6500;BME280;3283;52.330;9.772;2023-01-28T15:42:46;102165.63;;;1.02;78.04
6500;BME280;3283;52.330;9.772;2023-01-28T15:45:20;102162.31;;;1.05;78.56
6500;BME280;3283;52.330;9.772;2023-01-28T15:47:47;102170.97;;;1.05;78.89
6500;BME280;3283;52.330;9.772;2023-01-28T15:50:20;102169.50;;;1.10;79.05
6500;BME280;3283;52.330;9.772;2023-01-28T15:52:47;102170.97;;;1.05;79.02
6500;BME280;3283;52.330;9.772;2023-01-28T15:57:51;102167.91;;;0.96;79.42
6500;BME280;3283;52.330;9.772;2023-01-28T16:00:20;102172.97;;;0.93;79.73
6500;BME280;3283;52.330;9.772;2023-01-28T16:02:52;102184.94;;;0.91;80.40
6500;BME280;3283;52.330;9.772;2023-01-28T16:05:37;102188.00;;;0.84;80.41
6500;BME280;3283;52.330;9.772;2023-01-28T16:08:09;102206.97;;;0.83;81.28
6500;BME280;3283;52.330;9.772;2023-01-28T16:10:36;102204.16;;;0.78;81.43
6500;BME280;3283;52.330;9.772;2023-01-28T16:13:21;102200.81;;;0.81;81.48
6500;BME280;3283;52.330;9.772;2023-01-28T16:15:49;102207.47;;;0.76;82.53
6500;BME280;3283;52.330;9.772;2023-01-28T16:20:59;102210.81;;;0.73;82.74
6500;BME280;3283;52.330;9.772;2023-01-28T16:23:27;102220.91;;;0.69;82.97
6500;BME280;3283;52.330;9.772;2023-01-28T16:26:04;102230.31;;;0.67;83.17
6500;BME280;3283;52.330;9.772;2023-01-28T16:28:30;102234.53;;;0.65;83.69
6500;BME280;3283;52.330;9.772;2023-01-28T16:30:56;102233.72;;;0.66;83.73
6500;BME280;3283;52.330;9.772;2023-01-28T16:33:22;102223.16;;;0.63;83.91
6500;BME280;3283;52.330;9.772;2023-01-28T16:35:48;102223.75;;;0.57;84.25
6500;BME280;3283;52.330;9.772;2023-01-28T16:38:15;102214.19;;;0.56;84.47
6500;BME280;3283;52.330;9.772;2023-01-28T16:40:42;102203.81;;;0.56;84.61
6500;BME280;3283;52.330;9.772;2023-01-28T16:43:11;102191.69;;;0.55;84.20
6500;BME280;3283;52.330;9.772;2023-01-28T16:45:37;102176.25;;;0.57;84.91
6500;BME280;3283;52.330;9.772;2023-01-28T16:48:03;102165.63;;;0.52;85.18
6500;BME280;3283;52.330;9.772;2023-01-28T16:50:30;102166.38;;;0.49;85.76
6500;BME280;3283;52.330;9.772;2023-01-28T16:52:56;102163.59;;;0.46;85.37
6500;BME280;3283;52.330;9.772;2023-01-28T16:55:22;102163.28;;;0.40;85.62
6500;BME280;3283;52.330;9.772;2023-01-28T16:57:49;102181.81;;;0.32;86.54
6500;BME280;3283;52.330;9.772;2023-01-28T17:00:18;102182.53;;;0.29;87.05
6500;BME280;3283;52.330;9.772;2023-01-28T17:02:44;102183.84;;;0.37;86.40
6500;BME280;3283;52.330;9.772;2023-01-28T17:05:11;102175.34;;;0.40;86.61
6500;BME280;3283;52.330;9.772;2023-01-28T17:07:37;102182.06;;;0.36;86.48
6500;BME280;3283;52.330;9.772;2023-01-28T17:10:03;102194.44;;;0.42;86.67
6500;BME280;3283;52.330;9.772;2023-01-28T17:12:29;102188.88;;;0.50;86.17
6500;BME280;3283;52.330;9.772;2023-01-28T17:14:54;102196.22;;;0.43;86.72
6500;BME280;3283;52.330;9.772;2023-01-28T17:17:20;102191.09;;;0.28;87.25
6500;BME280;3283;52.330;9.772;2023-01-28T17:19:45;102191.44;;;0.34;87.41
6500;BME280;3283;52.330;9.772;2023-01-28T17:22:10;102196.38;;;0.30;87.04
6500;BME280;3283;52.330;9.772;2023-01-28T17:24:36;102193.47;;;0.40;87.27
6500;BME280;3283;52.330;9.772;2023-01-28T17:27:01;102187.47;;;0.41;87.85
6500;BME280;3283;52.330;9.772;2023-01-28T17:29:26;102186.09;;;0.31;89.51
6500;BME280;3283;52.330;9.772;2023-01-28T17:31:52;102192.91;;;0.29;89.98
6500;BME280;3283;52.330;9.772;2023-01-28T17:34:17;102198.16;;;0.31;91.26
6500;BME280;3283;52.330;9.772;2023-01-28T17:36:42;102202.13;;;0.24;92.49
6500;BME280;3283;52.330;9.772;2023-01-28T17:39:08;102201.94;;;0.21;94.32
6500;BME280;3283;52.330;9.772;2023-01-28T17:41:33;102203.34;;;0.31;94.36
6500;BME280;3283;52.330;9.772;2023-01-28T17:43:58;102205.94;;;0.31;94.78
6500;BME280;3283;52.330;9.772;2023-01-28T17:46:24;102214.72;;;0.34;94.90
6500;BME280;3283;52.330;9.772;2023-01-28T18:43:51;102226.19;;;-0.69;100.00
6500;BME280;3283;52.330;9.772;2023-01-28T18:46:17;102225.66;;;-0.48;100.00
6500;BME280;3283;52.330;9.772;2023-01-28T18:48:42;102227.34;;;-0.34;100.00
6500;BME280;3283;52.330;9.772;2023-01-28T20:44:22;102195.94;;;-1.57;100.00
6500;BME280;3283;52.330;9.772;2023-01-28T20:46:48;102189.22;;;-1.40;100.00
